sensor_id;sensor_type;location;lat;lon;timestamp;temperature;humidity
70706;DHT22;59320;52.316;10.870;2023-05-19T00:00:36;11.20;77.50
70706;DHT22;59320;52.316;10.870;2023-05-19T00:03:03;11.30;76.40
70706;DHT22;59320;52.316;10.870;2023-05-19T00:05:31;11.30;76.10
70706;DHT22;59320;52.316;10.870;2023-05-19T00:08:00;11.40;76.10
70706;DHT22;59320;52.316;10.870;2023-05-19T00:10:29;11.30;76.70
70706;DHT22;59320;52.316;10.870;2023-05-19T00:12:58;11.30;76.30
70706;DHT22;59320;52.316;10.870;2023-05-19T00:15:26;11.40;76.30
70706;DHT22;59320;52.316;10.870;2023-05-19T00:17:53;11.50;75.70
70706;DHT22;59320;52.316;10.870;2023-05-19T00:20:20;11.40;76.90
70706;DHT22;59320;52.316;10.870;2023-05-19T00:22:47;11.40;76.10
70706;DHT22;59320;52.316;10.870;2023-05-19T00:25:17;11.50;76.50
70706;DHT22;59320;52.316;10.870;2023-05-19T00:27:44;11.40;77.30
70706;DHT22;59320;52.316;10.870;2023-05-19T00:30:12;11.40;77.20
70706;DHT22;59320;52.316;10.870;2023-05-19T00:32:40;11.30;77.80
70706;DHT22;59320;52.316;10.870;2023-05-19T00:35:07;11.40;77.20
70706;DHT22;59320;52.316;10.870;2023-05-19T00:37:35;11.40;78.30
70706;DHT22;59320;52.316;10.870;2023-05-19T00:40:02;11.30;78.60
70706;DHT22;59320;52.316;10.870;2023-05-19T00:42:32;11.30;78.20
70706;DHT22;59320;52.316;10.870;2023-05-19T00:45:00;11.30;79.00
70706;DHT22;59320;52.316;10.870;2023-05-19T00:47:27;11.30;79.60
70706;DHT22;59320;52.316;10.870;2023-05-19T00:49:54;11.10;79.40
70706;DHT22;59320;52.316;10.870;2023-05-19T00:52:21;11.00;80.40
70706;DHT22;59320;52.316;10.870;2023-05-19T00:54:49;11.10;80.60
70706;DHT22;59320;52.316;10.870;2023-05-19T00:57:17;11.00;80.90
70706;DHT22;59320;52.316;10.870;2023-05-19T00:59:47;11.00;80.80
70706;DHT22;59320;52.316;10.870;2023-05-19T01:02:14;11.10;80.30
70706;DHT22;59320;52.316;10.870;2023-05-19T01:04:42;11.10;80.60
70706;DHT22;59320;52.316;10.870;2023-05-19T01:07:14;10.90;83.00
70706;DHT22;59320;52.316;10.870;2023-05-19T01:09:41;10.90;83.10
70706;DHT22;59320;52.316;10.870;2023-05-19T01:12:08;10.90;83.00
70706;DHT22;59320;52.316;10.870;2023-05-19T01:14:36;10.90;83.20
70706;DHT22;59320;52.316;10.870;2023-05-19T01:17:08;10.90;82.40
70706;DHT22;59320;52.316;10.870;2023-05-19T01:19:51;10.80;82.90
70706;DHT22;59320;52.316;10.870;2023-05-19T01:22:45;10.80;83.90
70706;DHT22;59320;52.316;10.870;2023-05-19T01:25:45;10.80;84.20
70706;DHT22;59320;52.316;10.870;2023-05-19T01:28:52;10.80;84.70
70706;DHT22;59320;52.316;10.870;2023-05-19T01:31:27;10.80;84.30
70706;DHT22;59320;52.316;10.870;2023-05-19T01:33:55;10.90;84.00
70706;DHT22;59320;52.316;10.870;2023-05-19T01:36:25;10.90;84.20
70706;DHT22;59320;52.316;10.870;2023-05-19T01:38:55;10.90;84.00
70706;DHT22;59320;52.316;10.870;2023-05-19T01:41:24;10.80;85.80
70706;DHT22;59320;52.316;10.870;2023-05-19T01:43:53;10.70;85.90
70706;DHT22;59320;52.316;10.870;2023-05-19T01:46:21;10.60;86.00
70706;DHT22;59320;52.316;10.870;2023-05-19T01:48:51;10.70;85.10
70706;DHT22;59320;52.316;10.870;2023-05-19T01:51:19;10.80;85.00
70706;DHT22;59320;52.316;10.870;2023-05-19T01:53:46;10.80;85.10
70706;DHT22;59320;52.316;10.870;2023-05-19T01:56:16;11.00;83.70
70706;DHT22;59320;52.316;10.870;2023-05-19T01:58:50;11.00;84.20
70706;DHT22;59320;52.316;10.870;2023-05-19T02:01:25;11.00;84.20
70706;DHT22;59320;52.316;10.870;2023-05-19T02:04:12;11.10;82.70
70706;DHT22;59320;52.316;10.870;2023-05-19T02:06:48;11.10;83.30
70706;DHT22;59320;52.316;10.870;2023-05-19T02:09:24;11.20;82.10
70706;DHT22;59320;52.316;10.870;2023-05-19T02:11:57;11.30;82.90
70706;DHT22;59320;52.316;10.870;2023-05-19T02:14:32;11.20;82.50
70706;DHT22;59320;52.316;10.870;2023-05-19T02:17:03;11.10;82.80
70706;DHT22;59320;52.316;10.870;2023-05-19T02:19:33;11.20;82.90
70706;DHT22;59320;52.316;10.870;2023-05-19T02:22:01;11.20;82.70
70706;DHT22;59320;52.316;10.870;2023-05-19T02:24:28;11.20;82.90
70706;DHT22;59320;52.316;10.870;2023-05-19T02:26:58;11.20;83.00
70706;DHT22;59320;52.316;10.870;2023-05-19T02:29:25;11.20;83.20
70706;DHT22;59320;52.316;10.870;2023-05-19T02:31:52;11.20;82.70
70706;DHT22;59320;52.316;10.870;2023-05-19T02:34:19;11.30;82.80
70706;DHT22;59320;52.316;10.870;2023-05-19T02:36:49;11.30;82.50
70706;DHT22;59320;52.316;10.870;2023-05-19T02:39:16;11.30;82.50
70706;DHT22;59320;52.316;10.870;2023-05-19T02:41:43;11.30;82.60
70706;DHT22;59320;52.316;10.870;2023-05-19T02:44:10;11.30;82.30
70706;DHT22;59320;52.316;10.870;2023-05-19T02:46:37;11.30;83.10
70706;DHT22;59320;52.316;10.870;2023-05-19T02:49:05;11.20;83.00
70706;DHT22;59320;52.316;10.870;2023-05-19T02:51:32;11.20;82.60
70706;DHT22;59320;52.316;10.870;2023-05-19T02:54:00;11.20;83.10
70706;DHT22;59320;52.316;10.870;2023-05-19T02:56:27;11.20;83.50
70706;DHT22;59320;52.316;10.870;2023-05-19T02:58:54;11.10;83.50
70706;DHT22;59320;52.316;10.870;2023-05-19T03:01:23;11.10;83.60
70706;DHT22;59320;52.316;10.870;2023-05-19T03:03:50;11.10;83.60
70706;DHT22;59320;52.316;10.870;2023-05-19T03:06:17;11.00;84.30
70706;DHT22;59320;52.316;10.870;2023-05-19T03:08:44;11.10;84.40
70706;DHT22;59320;52.316;10.870;2023-05-19T03:11:13;11.00;84.90
70706;DHT22;59320;52.316;10.870;2023-05-19T03:13:40;11.00;84.90
70706;DHT22;59320;52.316;10.870;2023-05-19T03:16:07;11.00;84.70
70706;DHT22;59320;52.316;10.870;2023-05-19T03:18:34;11.10;84.30
70706;DHT22;59320;52.316;10.870;2023-05-19T03:21:02;11.10;84.00
70706;DHT22;59320;52.316;10.870;2023-05-19T03:23:29;11.20;83.70
70706;DHT22;59320;52.316;10.870;2023-05-19T03:25:57;11.20;83.80
70706;DHT22;59320;52.316;10.870;2023-05-19T03:28:25;11.20;83.70
70706;DHT22;59320;52.316;10.870;2023-05-19T03:30:52;11.20;84.00
70706;DHT22;59320;52.316;10.870;2023-05-19T03:33:23;11.10;85.00
70706;DHT22;59320;52.316;10.870;2023-05-19T03:35:52;11.00;85.00
70706;DHT22;59320;52.316;10.870;2023-05-19T03:38:19;11.00;85.00
70706;DHT22;59320;52.316;10.870;2023-05-19T03:40:52;10.90;86.30
70706;DHT22;59320;52.316;10.870;2023-05-19T03:43:19;10.80;86.70
70706;DHT22;59320;52.316;10.870;2023-05-19T03:45:53;10.80;86.70
70706;DHT22;59320;52.316;10.870;2023-05-19T03:48:40;10.80;86.50
70706;DHT22;59320;52.316;10.870;2023-05-19T03:51:21;10.80;86.20
70706;DHT22;59320;52.316;10.870;2023-05-19T03:53:51;10.90;86.60
70706;DHT22;59320;52.316;10.870;2023-05-19T03:56:18;10.90;86.50
70706;DHT22;59320;52.316;10.870;2023-05-19T03:58:47;10.90;86.30
70706;DHT22;59320;52.316;10.870;2023-05-19T04:01:16;10.80;86.80
70706;DHT22;59320;52.316;10.870;2023-05-19T04:03:43;10.80;86.80
70706;DHT22;59320;52.316;10.870;2023-05-19T04:06:11;10.80;87.10
70706;DHT22;59320;52.316;10.870;2023-05-19T04:08:38;10.90;87.30
70706;DHT22;59320;52.316;10.870;2023-05-19T04:11:05;10.80;87.10
70706;DHT22;59320;52.316;10.870;2023-05-19T04:13:33;10.90;86.60
70706;DHT22;59320;52.316;10.870;2023-05-19T04:16:00;10.90;86.70
70706;DHT22;59320;52.316;10.870;2023-05-19T04:18:29;11.00;86.00
70706;DHT22;59320;52.316;10.870;2023-05-19T04:20:56;11.00;86.40
70706;DHT22;59320;52.316;10.870;2023-05-19T04:23:24;10.90;87.40
70706;DHT22;59320;52.316;10.870;2023-05-19T04:25:51;10.90;87.10
70706;DHT22;59320;52.316;10.870;2023-05-19T04:28:19;11.00;87.20
70706;DHT22;59320;52.316;10.870;2023-05-19T04:30:46;10.90;87.50
70706;DHT22;59320;52.316;10.870;2023-05-19T04:33:13;10.90;87.60
70706;DHT22;59320;52.316;10.870;2023-05-19T04:35:42;10.90;87.90
70706;DHT22;59320;52.316;10.870;2023-05-19T04:38:11;10.90;87.80
70706;DHT22;59320;52.316;10.870;2023-05-19T04:40:39;11.00;87.10
70706;DHT22;59320;52.316;10.870;2023-05-19T04:43:07;11.10;87.20
70706;DHT22;59320;52.316;10.870;2023-05-19T04:45:36;11.20;86.50
70706;DHT22;59320;52.316;10.870;2023-05-19T04:48:07;11.30;86.30
70706;DHT22;59320;52.316;10.870;2023-05-19T04:50:34;11.30;85.90
70706;DHT22;59320;52.316;10.870;2023-05-19T04:53:04;11.40;86.30
70706;DHT22;59320;52.316;10.870;2023-05-19T04:55:32;11.40;86.60
70706;DHT22;59320;52.316;10.870;2023-05-19T04:57:59;11.30;87.40
70706;DHT22;59320;52.316;10.870;2023-05-19T05:00:27;11.30;88.10
70706;DHT22;59320;52.316;10.870;2023-05-19T05:02:59;11.30;88.10
70706;DHT22;59320;52.316;10.870;2023-05-19T05:05:31;11.40;87.90
70706;DHT22;59320;52.316;10.870;2023-05-19T05:07:58;11.30;89.10
70706;DHT22;59320;52.316;10.870;2023-05-19T05:10:29;11.20;89.00
70706;DHT22;59320;52.316;10.870;2023-05-19T05:12:57;11.30;88.60
70706;DHT22;59320;52.316;10.870;2023-05-19T05:15:26;11.60;87.30
70706;DHT22;59320;52.316;10.870;2023-05-19T05:17:55;11.90;85.90
70706;DHT22;59320;52.316;10.870;2023-05-19T05:20:24;12.00;86.00
70706;DHT22;59320;52.316;10.870;2023-05-19T05:22:52;12.10;85.20
70706;DHT22;59320;52.316;10.870;2023-05-19T05:25:21;12.00;84.70
70706;DHT22;59320;52.316;10.870;2023-05-19T05:27:50;12.10;83.70
70706;DHT22;59320;52.316;10.870;2023-05-19T05:30:17;12.30;83.20
70706;DHT22;59320;52.316;10.870;2023-05-19T05:32:45;12.50;82.50
70706;DHT22;59320;52.316;10.870;2023-05-19T05:35:27;12.60;81.50
70706;DHT22;59320;52.316;10.870;2023-05-19T05:37:54;12.80;80.50
70706;DHT22;59320;52.316;10.870;2023-05-19T05:40:21;13.00;79.90
70706;DHT22;59320;52.316;10.870;2023-05-19T05:42:50;13.10;79.40
70706;DHT22;59320;52.316;10.870;2023-05-19T05:45:20;13.20;79.30
70706;DHT22;59320;52.316;10.870;2023-05-19T05:47:48;13.30;77.80
70706;DHT22;59320;52.316;10.870;2023-05-19T05:50:16;13.50;77.90
70706;DHT22;59320;52.316;10.870;2023-05-19T05:52:46;13.50;77.00
70706;DHT22;59320;52.316;10.870;2023-05-19T05:55:16;13.30;78.60
70706;DHT22;59320;52.316;10.870;2023-05-19T05:57:43;13.10;79.60
70706;DHT22;59320;52.316;10.870;2023-05-19T06:00:12;13.30;79.80
70706;DHT22;59320;52.316;10.870;2023-05-19T06:02:50;13.60;78.10
70706;DHT22;59320;52.316;10.870;2023-05-19T06:05:19;13.80;76.40
70706;DHT22;59320;52.316;10.870;2023-05-19T06:07:48;13.80;76.40
70706;DHT22;59320;52.316;10.870;2023-05-19T06:10:21;13.70;76.00
70706;DHT22;59320;52.316;10.870;2023-05-19T06:12:49;13.50;77.30
70706;DHT22;59320;52.316;10.870;2023-05-19T06:15:17;13.70;77.30
70706;DHT22;59320;52.316;10.870;2023-05-19T06:17:47;14.10;74.80
70706;DHT22;59320;52.316;10.870;2023-05-19T06:20:17;14.40;74.00
70706;DHT22;59320;52.316;10.870;2023-05-19T06:22:44;14.60;73.30
70706;DHT22;59320;52.316;10.870;2023-05-19T06:25:13;14.70;72.10
70706;DHT22;59320;52.316;10.870;2023-05-19T06:27:42;14.90;71.50
70706;DHT22;59320;52.316;10.870;2023-05-19T06:30:09;15.00;70.30
70706;DHT22;59320;52.316;10.870;2023-05-19T06:32:49;15.20;70.30
70706;DHT22;59320;52.316;10.870;2023-05-19T06:35:16;15.10;70.30
70706;DHT22;59320;52.316;10.870;2023-05-19T06:37:44;15.00;71.10
70706;DHT22;59320;52.316;10.870;2023-05-19T06:40:12;15.20;70.50
70706;DHT22;59320;52.316;10.870;2023-05-19T06:42:41;15.40;68.60
70706;DHT22;59320;52.316;10.870;2023-05-19T06:45:20;15.40;69.70
70706;DHT22;59320;52.316;10.870;2023-05-19T06:47:51;15.20;69.10
70706;DHT22;59320;52.316;10.870;2023-05-19T06:50:19;15.20;69.30
70706;DHT22;59320;52.316;10.870;2023-05-19T06:52:48;15.20;69.40
70706;DHT22;59320;52.316;10.870;2023-05-19T06:55:15;15.30;69.50
70706;DHT22;59320;52.316;10.870;2023-05-19T06:57:43;15.40;68.60
70706;DHT22;59320;52.316;10.870;2023-05-19T07:00:11;15.40;69.10
70706;DHT22;59320;52.316;10.870;2023-05-19T07:02:41;15.70;68.70
70706;DHT22;59320;52.316;10.870;2023-05-19T07:05:10;15.80;67.20
70706;DHT22;59320;52.316;10.870;2023-05-19T07:07:37;15.70;67.00
70706;DHT22;59320;52.316;10.870;2023-05-19T07:10:15;15.70;68.10
70706;DHT22;59320;52.316;10.870;2023-05-19T07:12:42;15.80;67.60
70706;DHT22;59320;52.316;10.870;2023-05-19T07:15:10;15.50;68.00
70706;DHT22;59320;52.316;10.870;2023-05-19T07:17:38;15.70;67.50
70706;DHT22;59320;52.316;10.870;2023-05-19T07:20:10;15.80;67.40
70706;DHT22;59320;52.316;10.870;2023-05-19T07:22:38;15.70;68.80
70706;DHT22;59320;52.316;10.870;2023-05-19T07:25:06;15.30;69.60
70706;DHT22;59320;52.316;10.870;2023-05-19T07:27:34;15.40;70.00
70706;DHT22;59320;52.316;10.870;2023-05-19T07:30:02;15.30;70.80
70706;DHT22;59320;52.316;10.870;2023-05-19T07:32:30;15.20;71.90
70706;DHT22;59320;52.316;10.870;2023-05-19T07:34:57;15.30;71.00
70706;DHT22;59320;52.316;10.870;2023-05-19T07:37:26;14.90;71.60
70706;DHT22;59320;52.316;10.870;2023-05-19T07:39:54;14.90;72.30
70706;DHT22;59320;52.316;10.870;2023-05-19T07:42:21;15.10;71.40
70706;DHT22;59320;52.316;10.870;2023-05-19T07:44:48;15.00;72.10
70706;DHT22;59320;52.316;10.870;2023-05-19T07:47:16;15.40;70.80
70706;DHT22;59320;52.316;10.870;2023-05-19T07:49:43;15.70;69.90
70706;DHT22;59320;52.316;10.870;2023-05-19T07:52:12;16.10;68.30
70706;DHT22;59320;52.316;10.870;2023-05-19T07:54:40;16.20;67.60
70706;DHT22;59320;52.316;10.870;2023-05-19T07:57:07;16.10;68.00
70706;DHT22;59320;52.316;10.870;2023-05-19T07:59:34;16.20;68.20
70706;DHT22;59320;52.316;10.870;2023-05-19T08:02:01;16.40;66.60
70706;DHT22;59320;52.316;10.870;2023-05-19T08:04:30;16.40;66.60
70706;DHT22;59320;52.316;10.870;2023-05-19T08:06:57;16.40;66.70
70706;DHT22;59320;52.316;10.870;2023-05-19T08:09:24;16.40;67.00
70706;DHT22;59320;52.316;10.870;2023-05-19T08:11:53;16.80;66.00
70706;DHT22;59320;52.316;10.870;2023-05-19T08:14:20;17.10;65.50
70706;DHT22;59320;52.316;10.870;2023-05-19T08:16:47;17.10;64.70
70706;DHT22;59320;52.316;10.870;2023-05-19T08:19:14;16.90;62.10
70706;DHT22;59320;52.316;10.870;2023-05-19T08:21:41;16.90;63.90
70706;DHT22;59320;52.316;10.870;2023-05-19T08:24:09;17.30;62.60
70706;DHT22;59320;52.316;10.870;2023-05-19T08:26:36;17.30;62.30
70706;DHT22;59320;52.316;10.870;2023-05-19T08:29:05;17.20;61.60
70706;DHT22;59320;52.316;10.870;2023-05-19T08:31:32;17.30;60.10
70706;DHT22;59320;52.316;10.870;2023-05-19T08:33:59;17.00;61.90
70706;DHT22;59320;52.316;10.870;2023-05-19T08:36:26;17.20;62.70
70706;DHT22;59320;52.316;10.870;2023-05-19T08:38:54;17.50;60.00
70706;DHT22;59320;52.316;10.870;2023-05-19T08:41:21;17.80;59.90
70706;DHT22;59320;52.316;10.870;2023-05-19T08:43:53;17.70;58.90
70706;DHT22;59320;52.316;10.870;2023-05-19T08:46:25;17.90;58.50
70706;DHT22;59320;52.316;10.870;2023-05-19T08:49:03;18.20;58.30
70706;DHT22;59320;52.316;10.870;2023-05-19T08:51:35;18.00;57.20
70706;DHT22;59320;52.316;10.870;2023-05-19T08:54:13;18.00;57.60
70706;DHT22;59320;52.316;10.870;2023-05-19T08:56:42;18.10;56.10
70706;DHT22;59320;52.316;10.870;2023-05-19T08:59:12;18.40;57.00
70706;DHT22;59320;52.316;10.870;2023-05-19T09:01:41;18.70;56.90
70706;DHT22;59320;52.316;10.870;2023-05-19T09:04:10;18.60;55.30
70706;DHT22;59320;52.316;10.870;2023-05-19T09:06:38;18.30;55.90
70706;DHT22;59320;52.316;10.870;2023-05-19T09:09:07;18.60;56.30
70706;DHT22;59320;52.316;10.870;2023-05-19T09:11:35;18.80;55.00
70706;DHT22;59320;52.316;10.870;2023-05-19T09:14:03;19.00;54.50
70706;DHT22;59320;52.316;10.870;2023-05-19T09:16:30;18.80;53.30
70706;DHT22;59320;52.316;10.870;2023-05-19T09:19:00;18.80;52.70
70706;DHT22;59320;52.316;10.870;2023-05-19T09:21:27;18.40;52.60
70706;DHT22;59320;52.316;10.870;2023-05-19T09:23:56;18.30;53.80
70706;DHT22;59320;52.316;10.870;2023-05-19T09:26:24;18.60;53.30
70706;DHT22;59320;52.316;10.870;2023-05-19T09:28:51;18.90;52.40
70706;DHT22;59320;52.316;10.870;2023-05-19T09:31:18;18.90;51.20
70706;DHT22;59320;52.316;10.870;2023-05-19T09:33:45;18.70;52.50
70706;DHT22;59320;52.316;10.870;2023-05-19T09:36:16;18.70;51.80
70706;DHT22;59320;52.316;10.870;2023-05-19T09:38:44;18.80;52.50
70706;DHT22;59320;52.316;10.870;2023-05-19T09:41:13;19.10;52.50
70706;DHT22;59320;52.316;10.870;2023-05-19T09:43:41;19.50;52.40
70706;DHT22;59320;52.316;10.870;2023-05-19T09:46:09;19.50;51.20
70706;DHT22;59320;52.316;10.870;2023-05-19T09:48:36;19.50;51.80
70706;DHT22;59320;52.316;10.870;2023-05-19T09:51:06;19.50;50.30
70706;DHT22;59320;52.316;10.870;2023-05-19T09:53:36;19.00;50.00
70706;DHT22;59320;52.316;10.870;2023-05-19T09:56:04;19.00;51.00
70706;DHT22;59320;52.316;10.870;2023-05-19T09:58:32;19.40;50.30
70706;DHT22;59320;52.316;10.870;2023-05-19T10:01:01;19.70;51.30
70706;DHT22;59320;52.316;10.870;2023-05-19T10:03:30;19.80;51.70
70706;DHT22;59320;52.316;10.870;2023-05-19T10:05:58;19.70;49.90
70706;DHT22;59320;52.316;10.870;2023-05-19T10:08:27;19.30;51.10
70706;DHT22;59320;52.316;10.870;2023-05-19T10:10:56;19.00;51.30
70706;DHT22;59320;52.316;10.870;2023-05-19T10:13:26;19.20;50.80
70706;DHT22;59320;52.316;10.870;2023-05-19T10:15:56;19.30;50.30
70706;DHT22;59320;52.316;10.870;2023-05-19T10:18:25;19.50;50.10
70706;DHT22;59320;52.316;10.870;2023-05-19T10:20:53;19.80;49.30
70706;DHT22;59320;52.316;10.870;2023-05-19T10:23:21;19.90;48.40
70706;DHT22;59320;52.316;10.870;2023-05-19T10:25:49;20.20;46.60
70706;DHT22;59320;52.316;10.870;2023-05-19T10:28:19;20.20;45.60
70706;DHT22;59320;52.316;10.870;2023-05-19T10:30:50;20.20;46.30
70706;DHT22;59320;52.316;10.870;2023-05-19T10:33:20;20.20;46.80
70706;DHT22;59320;52.316;10.870;2023-05-19T10:36:01;20.30;46.50
70706;DHT22;59320;52.316;10.870;2023-05-19T10:38:40;20.60;45.00
70706;DHT22;59320;52.316;10.870;2023-05-19T10:41:11;20.60;44.70
70706;DHT22;59320;52.316;10.870;2023-05-19T10:43:54;20.50;45.10
70706;DHT22;59320;52.316;10.870;2023-05-19T10:46:25;20.60;44.90
70706;DHT22;59320;52.316;10.870;2023-05-19T10:48:53;20.80;46.30
70706;DHT22;59320;52.316;10.870;2023-05-19T10:51:27;21.20;43.70
70706;DHT22;59320;52.316;10.870;2023-05-19T10:53:56;20.90;43.90
70706;DHT22;59320;52.316;10.870;2023-05-19T10:56:28;21.10;44.00
70706;DHT22;59320;52.316;10.870;2023-05-19T10:58:59;21.20;43.30
70706;DHT22;59320;52.316;10.870;2023-05-19T11:01:30;21.40;42.70
70706;DHT22;59320;52.316;10.870;2023-05-19T11:04:03;21.40;42.30
70706;DHT22;59320;52.316;10.870;2023-05-19T11:06:32;20.90;43.60
70706;DHT22;59320;52.316;10.870;2023-05-19T11:09:10;20.90;42.80
70706;DHT22;59320;52.316;10.870;2023-05-19T11:11:45;20.90;43.20
70706;DHT22;59320;52.316;10.870;2023-05-19T11:14:16;21.30;43.80
70706;DHT22;59320;52.316;10.870;2023-05-19T11:16:46;21.50;42.00
70706;DHT22;59320;52.316;10.870;2023-05-19T11:19:18;22.00;42.80
70706;DHT22;59320;52.316;10.870;2023-05-19T11:21:49;22.30;42.20
70706;DHT22;59320;52.316;10.870;2023-05-19T11:24:34;22.50;41.30
70706;DHT22;59320;52.316;10.870;2023-05-19T11:27:19;22.30;40.10
70706;DHT22;59320;52.316;10.870;2023-05-19T11:29:48;22.10;38.80
70706;DHT22;59320;52.316;10.870;2023-05-19T11:32:16;22.10;40.60
70706;DHT22;59320;52.316;10.870;2023-05-19T11:34:43;22.00;40.30
70706;DHT22;59320;52.316;10.870;2023-05-19T11:37:11;21.90;40.00
70706;DHT22;59320;52.316;10.870;2023-05-19T11:39:38;21.70;40.30
70706;DHT22;59320;52.316;10.870;2023-05-19T11:42:08;22.00;41.10
70706;DHT22;59320;52.316;10.870;2023-05-19T11:44:37;22.10;40.70
70706;DHT22;59320;52.316;10.870;2023-05-19T11:47:07;22.20;40.20
70706;DHT22;59320;52.316;10.870;2023-05-19T11:49:35;22.40;41.30
70706;DHT22;59320;52.316;10.870;2023-05-19T11:52:03;22.80;41.00
70706;DHT22;59320;52.316;10.870;2023-05-19T11:54:32;23.00;39.10
70706;DHT22;59320;52.316;10.870;2023-05-19T11:57:01;23.30;38.90
70706;DHT22;59320;52.316;10.870;2023-05-19T11:59:29;23.10;39.30
70706;DHT22;59320;52.316;10.870;2023-05-19T12:02:01;23.00;40.20
70706;DHT22;59320;52.316;10.870;2023-05-19T12:04:31;22.90;39.20
70706;DHT22;59320;52.316;10.870;2023-05-19T12:06:58;22.70;39.50
70706;DHT22;59320;52.316;10.870;2023-05-19T12:09:27;22.20;40.40
70706;DHT22;59320;52.316;10.870;2023-05-19T12:11:54;21.60;41.30
70706;DHT22;59320;52.316;10.870;2023-05-19T12:14:22;21.50;42.00
70706;DHT22;59320;52.316;10.870;2023-05-19T12:16:53;21.40;43.10
70706;DHT22;59320;52.316;10.870;2023-05-19T12:19:22;21.50;42.40
70706;DHT22;59320;52.316;10.870;2023-05-19T12:21:52;21.30;43.20
70706;DHT22;59320;52.316;10.870;2023-05-19T12:24:20;21.20;43.20
70706;DHT22;59320;52.316;10.870;2023-05-19T12:26:49;21.10;43.10
70706;DHT22;59320;52.316;10.870;2023-05-19T12:29:17;21.20;43.40
70706;DHT22;59320;52.316;10.870;2023-05-19T12:31:45;21.40;43.20
70706;DHT22;59320;52.316;10.870;2023-05-19T12:34:13;21.50;42.80
70706;DHT22;59320;52.316;10.870;2023-05-19T12:36:40;21.20;43.40
70706;DHT22;59320;52.316;10.870;2023-05-19T12:39:09;21.10;43.70
70706;DHT22;59320;52.316;10.870;2023-05-19T12:41:36;21.30;43.70
70706;DHT22;59320;52.316;10.870;2023-05-19T12:44:13;21.70;42.70
70706;DHT22;59320;52.316;10.870;2023-05-19T12:46:41;22.10;41.50
70706;DHT22;59320;52.316;10.870;2023-05-19T12:49:08;22.20;41.70
70706;DHT22;59320;52.316;10.870;2023-05-19T12:51:36;22.20;41.10
70706;DHT22;59320;52.316;10.870;2023-05-19T12:54:03;21.80;41.10
70706;DHT22;59320;52.316;10.870;2023-05-19T12:56:31;21.60;42.40
70706;DHT22;59320;52.316;10.870;2023-05-19T12:58:59;21.40;42.60
70706;DHT22;59320;52.316;10.870;2023-05-19T13:01:28;21.30;42.30
70706;DHT22;59320;52.316;10.870;2023-05-19T13:03:56;21.20;42.00
70706;DHT22;59320;52.316;10.870;2023-05-19T13:06:23;21.10;42.90
70706;DHT22;59320;52.316;10.870;2023-05-19T13:08:50;21.20;42.20
70706;DHT22;59320;52.316;10.870;2023-05-19T13:11:17;21.40;42.80
70706;DHT22;59320;52.316;10.870;2023-05-19T13:13:46;21.60;41.90
70706;DHT22;59320;52.316;10.870;2023-05-19T13:16:13;21.50;42.00
70706;DHT22;59320;52.316;10.870;2023-05-19T13:18:41;21.30;43.60
70706;DHT22;59320;52.316;10.870;2023-05-19T13:21:13;21.60;43.60
70706;DHT22;59320;52.316;10.870;2023-05-19T13:23:40;21.80;43.80
70706;DHT22;59320;52.316;10.870;2023-05-19T13:26:07;22.30;42.90
70706;DHT22;59320;52.316;10.870;2023-05-19T13:28:37;22.30;42.00
70706;DHT22;59320;52.316;10.870;2023-05-19T13:31:06;21.90;41.30
70706;DHT22;59320;52.316;10.870;2023-05-19T13:33:33;22.00;41.70
70706;DHT22;59320;52.316;10.870;2023-05-19T13:36:00;21.70;42.20
70706;DHT22;59320;52.316;10.870;2023-05-19T13:38:27;21.60;43.10
70706;DHT22;59320;52.316;10.870;2023-05-19T13:40:55;21.80;42.00
70706;DHT22;59320;52.316;10.870;2023-05-19T13:43:22;21.80;42.10
70706;DHT22;59320;52.316;10.870;2023-05-19T13:45:49;21.40;43.10
70706;DHT22;59320;52.316;10.870;2023-05-19T13:48:18;21.50;43.40
70706;DHT22;59320;52.316;10.870;2023-05-19T13:50:45;21.40;42.80
70706;DHT22;59320;52.316;10.870;2023-05-19T13:53:12;21.60;42.50
70706;DHT22;59320;52.316;10.870;2023-05-19T13:55:39;21.50;42.30
70706;DHT22;59320;52.316;10.870;2023-05-19T13:58:07;21.40;42.20
70706;DHT22;59320;52.316;10.870;2023-05-19T14:00:35;21.40;42.20
70706;DHT22;59320;52.316;10.870;2023-05-19T14:03:03;21.60;41.90
70706;DHT22;59320;52.316;10.870;2023-05-19T14:05:31;21.70;41.50
70706;DHT22;59320;52.316;10.870;2023-05-19T14:07:59;21.80;42.00
70706;DHT22;59320;52.316;10.870;2023-05-19T14:10:28;22.10;42.00
70706;DHT22;59320;52.316;10.870;2023-05-19T14:12:55;22.00;41.00
70706;DHT22;59320;52.316;10.870;2023-05-19T14:15:24;21.60;41.30
70706;DHT22;59320;52.316;10.870;2023-05-19T14:17:51;21.40;42.10
70706;DHT22;59320;52.316;10.870;2023-05-19T14:20:18;21.40;41.30
70706;DHT22;59320;52.316;10.870;2023-05-19T14:22:47;22.00;40.60
70706;DHT22;59320;52.316;10.870;2023-05-19T14:25:14;23.00;39.50
70706;DHT22;59320;52.316;10.870;2023-05-19T14:27:41;23.60;38.10
70706;DHT22;59320;52.316;10.870;2023-05-19T14:30:09;23.40;38.10
70706;DHT22;59320;52.316;10.870;2023-05-19T14:32:37;23.30;39.30
70706;DHT22;59320;52.316;10.870;2023-05-19T14:35:05;23.30;39.40
70706;DHT22;59320;52.316;10.870;2023-05-19T14:37:32;23.40;38.70
70706;DHT22;59320;52.316;10.870;2023-05-19T14:40:01;23.20;39.70
70706;DHT22;59320;52.316;10.870;2023-05-19T14:42:29;23.20;39.70
70706;DHT22;59320;52.316;10.870;2023-05-19T14:44:56;23.30;39.00
70706;DHT22;59320;52.316;10.870;2023-05-19T14:47:23;23.40;37.70
70706;DHT22;59320;52.316;10.870;2023-05-19T14:49:50;23.60;37.50
70706;DHT22;59320;52.316;10.870;2023-05-19T14:52:17;24.00;36.70
70706;DHT22;59320;52.316;10.870;2023-05-19T14:54:44;23.70;36.20
70706;DHT22;59320;52.316;10.870;2023-05-19T14:57:14;24.00;36.10
70706;DHT22;59320;52.316;10.870;2023-05-19T14:59:41;24.50;36.10
70706;DHT22;59320;52.316;10.870;2023-05-19T15:02:08;24.40;35.90
70706;DHT22;59320;52.316;10.870;2023-05-19T15:04:36;24.10;36.20
70706;DHT22;59320;52.316;10.870;2023-05-19T15:07:04;23.80;36.90
70706;DHT22;59320;52.316;10.870;2023-05-19T15:09:31;23.60;37.20
70706;DHT22;59320;52.316;10.870;2023-05-19T15:11:58;23.30;37.50
70706;DHT22;59320;52.316;10.870;2023-05-19T15:15:54;23.30;37.70
70706;DHT22;59320;52.316;10.870;2023-05-19T15:18:03;23.40;37.00
70706;DHT22;59320;52.316;10.870;2023-05-19T15:20:32;23.60;37.00
70706;DHT22;59320;52.316;10.870;2023-05-19T15:23:00;23.50;37.00
70706;DHT22;59320;52.316;10.870;2023-05-19T15:25:27;23.30;37.10
70706;DHT22;59320;52.316;10.870;2023-05-19T15:27:54;23.50;36.70